Time;durP1;ratioP1;P1;durP2;ratioP2;P2;SDS_P1;SDS_P2;PMS_P1;PMS_P2;Temp;Humidity;BMP_temperature;BMP_pressure;BME280_temperature;BME280_humidity;BME280_pressure;Samples;Min_cycle;Max_cycle;Signal;HPM_P1;HPM_P2
2022/05/21 00:01:56;;;;;;;0.43;0.43;;;25.50;51.30;;;28.39;38.27;101516.66;5063836;28;20199;-44
2022/05/21 00:04:23;;;;;;;0.47;0.47;;;25.50;51.30;;;28.40;38.19;101522.91;5061639;28;20197;-44
2022/05/21 00:08:08;;;;;;;0.40;0.30;;;25.50;51.30;;;28.25;38.40;101522.91;5016775;28;20213;-42
2022/05/21 00:13:12;;;;;;;0.47;0.33;;;25.50;51.30;;;28.35;37.99;101526.44;5169513;27;20633;-42
2022/05/21 00:15:41;;;;;;;0.40;0.40;;;25.50;51.30;;;28.37;38.07;101534.25;5137706;27;20303;-41
2022/05/21 00:18:08;;;;;;;0.40;0.40;;;25.50;51.30;;;28.37;37.98;101536.97;5126941;28;20253;-40
2022/05/21 00:20:47;;;;;;;0.30;0.30;;;25.40;51.20;;;28.37;38.29;101529.66;5141660;27;20662;-41
2022/05/21 00:23:20;;;;;;;0.30;0.30;;;25.40;51.20;;;28.35;38.10;101525.59;5105714;28;20257;-42
2022/05/21 00:25:51;;;;;;;0.30;0.30;;;25.50;51.20;;;28.35;38.27;101536.44;5072628;28;20282;-43
2022/05/21 00:28:19;;;;;;;0.40;0.40;;;25.50;51.20;;;28.35;38.07;101531.03;5043730;28;20680;-41
2022/05/21 00:30:45;;;;;;;0.30;0.30;;;25.50;51.20;;;28.35;37.98;101536.44;5032575;28;20203;-41
2022/05/21 00:36:07;;;;;;;0.30;0.30;;;25.40;51.20;;;28.34;38.07;101548.34;5154035;27;20328;-44
2022/05/21 00:38:40;;;;;;;0.40;0.40;;;25.40;51.10;;;28.34;38.31;101540.22;5089963;28;20280;-42
2022/05/21 00:41:12;;;;;;;1.17;0.60;;;25.40;51.10;;;28.32;38.03;101542.41;5089417;28;20224;-40
2022/05/21 00:43:45;;;;;;;0.50;0.50;;;25.40;51.10;;;28.33;38.02;101538.63;5120739;28;20475;-42
2022/05/21 00:46:16;;;;;;;0.40;0.40;;;25.40;51.10;;;28.32;38.03;101547.81;5085082;28;20317;-41
2022/05/21 00:48:45;;;;;;;0.40;0.40;;;25.40;51.10;;;28.33;37.80;101554.88;5054190;28;20203;-40
2022/05/21 00:51:19;;;;;;;0.40;0.40;;;25.40;51.10;;;28.30;37.98;101550.81;5054926;28;20213;-41
2022/05/21 00:53:45;;;;;;;0.40;0.40;;;25.40;51.10;;;28.31;38.06;101566.00;5046823;28;20201;-42
2022/05/21 01:01:45;;;;;;;0.50;0.30;;;25.40;51.00;;;28.30;38.02;101577.06;5120434;28;20198;-41
2022/05/21 01:04:12;;;;;;;1.03;0.60;;;25.40;51.00;;;28.31;37.98;101578.72;5064154;28;20331;-40
2022/05/21 01:06:39;;;;;;;0.20;0.20;;;25.40;51.00;;;28.30;37.93;101588.72;5097054;28;20227;-40
2022/05/21 01:09:06;;;;;;;0.40;0.40;;;25.40;51.00;;;28.30;37.84;101596.84;5055003;28;20660;-39
2022/05/21 01:11:36;;;;;;;0.50;0.40;;;25.40;51.00;;;28.32;37.79;101596.56;5061705;28;20193;-41
2022/05/21 01:14:08;;;;;;;0.37;0.37;;;25.40;51.00;;;28.30;37.92;101596.84;5005875;28;20308;-42
2022/05/21 01:16:34;;;;;;;0.73;0.43;;;25.40;51.00;;;28.30;37.77;101593.34;4782466;29;20635;-49
2022/05/21 01:21:38;;;;;;;0.63;0.40;;;25.40;50.90;;;28.30;37.76;101586.03;5169488;27;20557;-41
2022/05/21 01:24:08;;;;;;;0.33;0.33;;;25.40;50.90;;;28.29;38.03;101586.31;5148973;27;20198;-40
2022/05/21 01:26:38;;;;;;;0.30;0.30;;;25.40;50.90;;;28.28;37.76;101579.25;5134863;27;20241;-42
2022/05/21 01:29:12;;;;;;;0.40;0.40;;;25.40;50.90;;;28.27;37.68;101594.69;5148046;27;20529;-41
2022/05/21 01:31:49;;;;;;;0.40;0.40;;;25.40;50.90;;;28.25;37.98;101596.03;5071764;28;20614;-41
2022/05/21 01:34:16;;;;;;;0.40;0.40;;;25.40;50.80;;;28.27;37.94;101588.44;5006628;28;20316;-40
2022/05/21 01:36:43;;;;;;;0.30;0.30;;;25.40;50.80;;;28.27;38.04;101588.44;4999303;28;20227;-42
2022/05/21 01:39:11;;;;;;;0.40;0.40;;;25.30;50.70;;;28.26;37.68;101589.53;4981583;28;20204;-42
2022/05/21 01:41:51;;;;;;;0.50;0.50;;;25.40;50.80;;;28.25;37.95;101596.03;4924619;28;20202;-41
2022/05/21 01:46:55;;;;;;;0.40;0.40;;;25.40;50.80;;;28.27;37.58;101588.44;5161093;27;20618;-41
2022/05/21 01:49:22;;;;;;;0.37;0.37;;;25.40;50.80;;;28.26;37.84;101589.53;5126241;28;20195;-40
2022/05/21 01:51:49;;;;;;;0.40;0.40;;;25.30;50.70;;;28.25;37.92;101579.78;5128350;28;20198;-39
2022/05/21 01:54:16;;;;;;;0.40;0.40;;;25.40;50.70;;;28.25;37.59;101586.03;5134219;27;20238;-40
2022/05/21 01:56:42;;;;;;;0.40;0.40;;;25.40;50.70;;;28.24;37.85;101589.00;5114692;27;20220;-40
2022/05/21 01:59:10;;;;;;;0.33;0.30;;;25.30;50.60;;;28.23;37.71;101584.66;5054546;28;20204;-40
2022/05/21 02:01:37;;;;;;;0.47;0.47;;;25.40;50.70;;;28.24;37.43;101583.59;5067644;28;20193;-40
2022/05/21 02:04:04;;;;;;;0.40;0.40;;;25.30;50.60;;;28.24;38.33;101578.19;5060590;28;20209;-40
2022/05/21 02:06:32;;;;;;;0.30;0.30;;;25.30;50.60;;;28.22;37.92;101591.19;5056980;28;20565;-40
2022/05/21 02:11:32;;;;;;;0.40;0.40;;;25.30;50.60;;;28.22;37.39;101574.94;5170268;27;20304;-40
2022/05/21 02:13:59;;;;;;;0.40;0.40;;;25.30;50.50;;;28.21;37.55;101578.72;5146857;27;20304;-42
2022/05/21 02:16:25;;;;;;;0.30;0.30;;;25.30;50.50;;;28.21;37.88;101576.00;5147692;27;20605;-40
2022/05/21 02:18:52;;;;;;;0.27;0.27;;;25.30;50.50;;;28.19;37.70;101568.94;5143528;27;20198;-41
2022/05/21 02:21:19;;;;;;;0.30;0.30;;;25.30;50.50;;;28.19;37.67;101571.66;5103814;28;20413;-41
2022/05/21 02:23:45;;;;;;;0.40;0.40;;;25.30;50.50;;;28.20;38.17;101572.47;5039666;28;20196;-41
2022/05/21 02:26:12;;;;;;;0.30;0.30;;;25.30;50.50;;;28.21;37.96;101576.00;5060501;28;20235;-42
2022/05/21 02:28:40;;;;;;;0.40;0.40;;;25.30;50.50;;;28.19;37.65;101570.88;5114934;28;20283;-43
2022/05/21 02:31:06;;;;;;;0.40;0.40;;;25.30;50.50;;;28.19;37.53;101581.69;5118135;28;20230;-43
2022/05/21 02:36:07;;;;;;;0.37;0.37;;;25.30;51.10;;;28.18;37.21;101586.28;5152683;27;20325;-42
2022/05/21 02:41:20;;;;;;;0.40;0.40;;;25.30;50.40;;;28.16;37.73;101574.94;5090008;28;20223;-42
2022/05/21 02:43:47;;;;;;;0.30;0.30;;;25.30;50.40;;;28.16;37.58;101566.81;5096218;28;20192;-41
2022/05/21 02:46:15;;;;;;;0.23;0.23;;;25.30;50.40;;;28.15;37.57;101559.75;5087847;28;20680;-42
2022/05/21 02:48:42;;;;;;;0.30;0.30;;;25.30;50.40;;;28.16;37.42;101560.56;5086195;28;20521;-40
2022/05/21 02:51:11;;;;;;;0.20;0.20;;;25.30;50.40;;;28.16;37.63;101563.28;5103774;28;20196;-40
2022/05/21 02:53:38;;;;;;;0.30;0.30;;;25.30;50.40;;;28.15;37.43;101562.44;4997995;28;20203;-41
2022/05/21 02:56:04;;;;;;;0.50;0.50;;;25.30;50.40;;;28.15;37.84;101558.94;4761338;29;20597;-41
2022/05/21 03:01:09;;;;;;;0.50;0.50;;;25.20;50.30;;;28.15;37.64;101559.75;5170301;27;21129;-40
2022/05/21 03:03:36;;;;;;;0.43;0.30;;;25.20;50.30;;;28.14;37.46;101558.13;5149235;27;20194;-41
2022/05/21 03:06:02;;;;;;;0.50;0.50;;;25.20;50.30;;;28.14;37.53;101558.13;5139072;27;20219;-41
2022/05/21 03:11:14;;;;;;;0.63;0.43;;;25.20;50.30;;;28.13;37.58;101556.50;5110204;28;20191;-41
2022/05/21 03:13:41;;;;;;;0.40;0.40;;;25.20;50.20;;;28.13;37.26;101559.22;5144725;27;20194;-41
2022/05/21 03:16:09;;;;;;;0.40;0.40;;;25.20;50.30;;;28.13;37.50;101551.09;5076787;28;20209;-41
2022/05/21 03:18:36;;;;;;;0.47;0.47;;;25.20;50.20;;;28.14;37.84;101549.19;5009528;28;20293;-41
2022/05/21 03:21:02;;;;;;;0.33;0.33;;;25.20;50.20;;;28.13;37.68;101556.50;5059055;28;20225;-41
2022/05/21 03:26:07;;;;;;;0.30;0.30;;;25.20;50.20;;;28.14;37.65;101552.72;5141410;27;20569;-40
2022/05/21 03:28:33;;;;;;;0.30;0.30;;;25.20;50.20;;;28.14;37.61;101555.44;5092698;28;20197;-41
2022/05/21 03:31:02;;;;;;;0.53;0.40;;;25.20;50.20;;;28.14;37.22;101547.31;5136066;27;20327;-39
2022/05/21 03:33:29;;;;;;;0.50;0.50;;;25.20;50.10;;;28.14;37.50;101541.06;5148161;27;20200;-39
2022/05/21 03:35:55;;;;;;;0.30;0.30;;;25.20;50.10;;;28.13;37.54;101545.66;5138561;27;20563;-43
2022/05/21 03:38:22;;;;;;;0.40;0.40;;;25.20;50.10;;;28.13;37.40;101534.84;5142719;27;20190;-41
2022/05/21 03:40:49;;;;;;;0.40;0.40;;;25.20;50.10;;;28.12;37.55;101533.19;5136252;27;20195;-42
2022/05/21 03:43:16;;;;;;;0.30;0.30;;;25.20;50.10;;;28.12;37.40;101538.63;5089927;28;20261;-43
2022/05/21 03:45:43;;;;;;;0.37;0.37;;;25.20;50.10;;;28.13;37.38;101539.44;5096621;28;20235;-41
2022/05/21 03:48:09;;;;;;;0.30;0.30;;;25.20;50.10;;;28.14;37.35;101541.06;5032552;28;20202;-39
2022/05/21 03:53:14;;;;;;;0.50;0.40;;;25.20;50.00;;;28.13;37.29;101528.59;5170170;27;20645;-41
2022/05/21 03:55:41;;;;;;;0.50;0.50;;;25.20;50.00;;;28.13;37.38;101528.59;5114776;28;20593;-40
2022/05/21 03:58:08;;;;;;;0.30;0.30;;;25.20;50.00;;;28.12;37.06;101530.50;5111943;27;20198;-41
2022/05/21 04:00:38;;;;;;;0.50;0.50;;;25.20;50.00;;;28.11;37.15;101526.19;5136074;27;20204;-41
2022/05/21 04:03:05;;;;;;;0.50;0.50;;;25.20;50.00;;;28.11;37.49;101526.19;5138347;27;20279;-40
2022/05/21 04:05:31;;;;;;;0.30;0.30;;;25.20;50.00;;;28.11;37.37;101533.47;5142681;27;20222;-40
2022/05/21 04:07:58;;;;;;;0.40;0.40;;;25.20;50.00;;;28.10;37.47;101527.25;5098508;28;20287;-41
2022/05/21 04:10:26;;;;;;;0.40;0.40;;;25.20;50.00;;;28.10;37.38;101535.38;5081716;28;20196;-42
2022/05/21 04:12:52;;;;;;;0.43;0.40;;;25.20;50.00;;;28.10;37.48;101535.38;5105480;28;20656;-42
2022/05/21 04:17:57;;;;;;;0.60;0.60;;;25.20;50.00;;;28.12;37.18;101532.41;5151663;27;21170;-41
2022/05/21 04:20:24;;;;;;;0.50;0.50;;;25.20;49.90;;;28.11;37.17;101530.78;5128351;28;20199;-41
2022/05/21 04:22:52;;;;;;;0.40;0.40;;;25.20;50.00;;;28.11;37.12;101526.19;5128212;28;20601;-39
2022/05/21 04:25:20;;;;;;;0.40;0.40;;;25.20;49.90;;;28.11;37.29;101528.06;5118962;28;20237;-41
2022/05/21 04:27:46;;;;;;;0.30;0.30;;;25.20;49.90;;;28.10;37.44;101529.13;5089236;28;20663;-42
2022/05/21 04:30:19;;;;;;;0.40;0.40;;;25.20;49.90;;;28.09;37.20;101528.34;5074302;28;20197;-41
2022/05/21 04:32:47;;;;;;;0.30;0.30;;;25.20;49.90;;;28.10;37.30;101529.97;5024724;28;20199;-43
2022/05/21 04:39:32;;;;;;;0.30;0.30;;;25.20;49.90;;;28.00;37.59;101535.38;4698001;30;20203;-43
2022/05/21 04:44:37;;;;;;;0.30;0.30;;;25.20;49.80;;;28.04;37.45;101525.63;5168071;27;20569;-40
2022/05/21 04:47:05;;;;;;;0.40;0.40;;;25.20;49.80;;;28.05;37.24;101527.25;5092300;28;20303;-42
2022/05/21 04:49:34;;;;;;;0.50;0.50;;;25.20;49.80;;;28.06;37.30;101522.66;5089347;28;20207;-42
2022/05/21 04:52:02;;;;;;;0.53;0.40;;;25.20;49.80;;;28.07;37.20;101519.69;5077206;28;20288;-41
2022/05/21 04:54:29;;;;;;;0.40;0.40;;;25.20;49.80;;;28.06;37.40;101518.06;5047932;28;20253;-40
2022/05/21 04:56:56;;;;;;;0.60;0.40;;;25.10;49.80;;;28.06;37.39;101518.06;5056214;28;20267;-42
2022/05/21 04:59:22;;;;;;;0.40;0.40;;;25.20;49.80;;;28.05;36.99;101521.81;5099990;28;20191;-41
2022/05/21 05:01:50;;;;;;;0.30;0.30;;;25.20;49.80;;;28.07;37.10;101519.69;5122465;28;20195;-41
2022/05/21 05:04:16;;;;;;;0.37;0.37;;;25.20;49.80;;;28.07;37.08;101521.56;5103316;28;20218;-42
2022/05/21 05:09:22;;;;;;;0.40;0.40;;;25.20;49.70;;;28.07;37.13;101519.69;5170200;27;20625;-42
2022/05/21 05:11:51;;;;;;;0.37;0.37;;;25.20;49.80;;;28.07;36.98;101519.69;5130427;27;20199;-41
2022/05/21 05:14:18;;;;;;;0.43;0.43;;;25.20;49.70;;;28.08;37.01;101529.41;5148739;27;20258;-42
2022/05/21 05:16:44;;;;;;;0.40;0.40;;;25.20;49.70;;;28.08;37.28;101521.28;5147743;27;20214;-42
2022/05/21 05:19:17;;;;;;;0.30;0.30;;;25.20;49.70;;;28.09;37.05;101522.94;5113800;28;20593;-41
2022/05/21 05:21:43;;;;;;;0.40;0.40;;;25.20;49.70;;;28.09;37.05;101527.53;5119942;28;20199;-42
2022/05/21 05:24:10;;;;;;;0.40;0.40;;;25.20;49.70;;;28.08;37.05;101526.72;5120449;28;20195;-41
2022/05/21 05:27:54;;;;;;;0.40;0.40;;;25.20;49.70;;;27.94;37.53;101525.59;5121719;28;20268;-41
2022/05/21 05:30:20;;;;;;;0.40;0.40;;;25.20;49.70;;;28.01;37.04;101525.34;4806670;29;20577;-42
2022/05/21 05:35:20;;;;;;;0.30;0.30;;;25.20;49.60;;;28.04;36.95;101520.22;5161620;27;20320;-42
2022/05/21 05:37:47;;;;;;;0.30;0.30;;;25.20;49.60;;;28.05;37.27;101516.41;5093149;28;20204;-42
2022/05/21 05:40:18;;;;;;;0.30;0.30;;;25.10;49.60;;;28.07;36.68;101518.88;5108303;28;20191;-42
2022/05/21 05:42:44;;;;;;;0.50;0.50;;;25.20;49.60;;;28.06;37.30;101515.34;5127608;28;20209;-42
2022/05/21 05:45:13;;;;;;;0.40;0.40;;;25.20;49.60;;;28.07;37.30;101516.16;5117318;28;20220;-41
2022/05/21 05:47:40;;;;;;;0.20;0.20;;;25.20;49.60;;;28.07;37.09;101525.09;5122375;28;20590;-40
2022/05/21 05:50:08;;;;;;;0.40;0.40;;;25.20;49.60;;;28.08;36.75;101520.47;5124492;28;20206;-42
2022/05/21 05:52:36;;;;;;;0.50;0.50;;;25.20;49.60;;;28.08;36.99;101532.13;5031892;28;20205;-41
2022/05/21 05:55:04;;;;;;;0.60;0.30;;;25.20;49.60;;;28.08;37.04;101526.72;4952298;28;20266;-40
2022/05/21 05:57:29;;;;;;;0.80;0.40;;;25.20;49.60;;;28.07;37.21;101525.09;4876427;29;20200;-42
2022/05/21 06:05:20;;;;;;;0.73;0.50;;;25.20;49.50;;;28.07;37.04;101525.09;5118661;28;20219;-42
2022/05/21 06:07:50;;;;;;;0.60;0.40;;;25.20;49.50;;;28.07;37.24;101527.81;5084827;28;20310;-42
2022/05/21 06:10:20;;;;;;;0.30;0.30;;;25.20;49.50;;;28.08;36.97;101526.72;5071686;28;20203;-41
2022/05/21 06:12:48;;;;;;;0.40;0.40;;;25.20;49.50;;;28.10;37.03;101529.97;5088378;28;20189;-42
2022/05/21 06:15:16;;;;;;;0.30;0.30;;;25.20;49.50;;;28.09;37.11;101528.34;5036027;28;20301;-41
2022/05/21 06:17:43;;;;;;;0.30;0.30;;;25.20;49.50;;;28.10;37.08;101529.97;4937953;28;20189;-41
2022/05/21 06:23:40;;;;;;;0.43;0.30;;;25.20;49.50;;;28.06;36.78;101530.78;5170259;27;20537;-42
2022/05/21 06:26:07;;;;;;;0.40;0.40;;;25.20;49.50;;;28.06;37.13;101539.72;5118526;27;20223;-41
2022/05/21 06:28:34;;;;;;;0.40;0.40;;;25.20;49.50;;;28.07;37.02;101533.22;5127479;27;20195;-42
2022/05/21 06:31:00;;;;;;;0.50;0.50;;;25.20;49.50;;;28.09;37.00;101543.78;5127486;28;20206;-42
2022/05/21 06:33:30;;;;;;;0.40;0.40;;;25.20;49.50;;;28.10;37.02;101537.25;5118659;28;20197;-42
2022/05/21 06:36:07;;;;;;;0.40;0.40;;;25.20;49.50;;;28.07;36.86;101541.34;5075904;28;20270;-42
2022/05/21 06:38:37;;;;;;;0.40;0.40;;;25.20;49.50;;;28.09;36.94;101544.59;5052457;28;20203;-42
2022/05/21 06:41:05;;;;;;;0.43;0.43;;;25.20;49.40;;;28.09;36.92;101547.31;5017000;28;20658;-41
2022/05/21 06:43:31;;;;;;;0.40;0.40;;;25.20;49.50;;;28.09;37.14;101547.31;5037760;28;20321;-42
2022/05/21 06:45:57;;;;;;;0.40;0.40;;;25.20;49.40;;;28.09;37.10;101547.31;4965881;28;20219;-42
2022/05/21 06:48:36;;;;;;;0.50;0.50;;;25.20;49.40;;;28.10;37.04;101539.97;5169906;27;20396;-41
2022/05/21 06:51:05;;;;;;;0.23;0.23;;;25.20;49.40;;;28.09;36.91;101555.44;5149374;27;20227;-40
2022/05/21 06:53:33;;;;;;;0.50;0.50;;;25.20;49.40;;;28.09;37.08;101544.59;5148818;27;20188;-40
2022/05/21 06:56:04;;;;;;;0.30;0.30;;;25.20;49.40;;;28.09;37.01;101539.19;5133941;27;20229;-40
2022/05/21 06:58:30;;;;;;;0.50;0.50;;;25.20;49.40;;;28.10;36.83;101543.50;5082181;28;20206;-42
2022/05/21 07:01:04;;;;;;;0.50;0.50;;;25.20;49.40;;;28.10;36.83;101535.38;5071942;28;20261;-42
2022/05/21 07:03:31;;;;;;;0.40;0.40;;;25.20;49.40;;;28.11;36.89;101539.72;5082584;28;20200;-42
2022/05/21 07:08:56;;;;;;;0.67;0.50;;;25.20;49.40;;;28.12;36.86;101543.25;5170104;27;20634;-40
2022/05/21 07:11:23;;;;;;;0.40;0.40;;;25.20;49.40;;;28.13;36.83;101539.44;5149230;27;20680;-42
2022/05/21 07:13:49;;;;;;;0.40;0.40;;;25.20;49.40;;;28.12;36.97;101554.88;5148047;27;20206;-43
2022/05/21 07:16:16;;;;;;;0.37;0.37;;;25.20;49.30;;;28.14;36.75;101557.31;5129536;27;20207;-42
2022/05/21 07:18:42;;;;;;;0.33;0.33;;;25.20;49.30;;;28.14;36.68;101565.44;5118526;28;20206;-42
2022/05/21 07:21:15;;;;;;;0.30;0.30;;;25.20;49.30;;;28.13;36.81;101550.25;5121528;28;20198;-42
2022/05/21 07:23:42;;;;;;;0.50;0.50;;;25.20;49.30;;;28.14;36.99;101563.56;5043671;28;20704;-42
2022/05/21 07:26:09;;;;;;;0.40;0.40;;;25.20;49.30;;;28.15;36.70;101565.16;4935437;28;20226;-42
2022/05/21 07:28:36;;;;;;;0.50;0.40;;;25.20;49.20;;;28.15;36.69;101570.59;4934797;29;20231;-40
2022/05/21 07:33:40;;;;;;;0.20;0.20;;;25.20;49.20;;;28.16;36.67;101561.38;5170186;27;20641;-41
2022/05/21 07:36:07;;;;;;;0.40;0.40;;;25.20;49.20;;;28.16;36.72;101572.22;5133728;27;20275;-41
2022/05/21 07:38:34;;;;;;;0.47;0.40;;;25.20;49.20;;;28.16;36.72;101565.97;5122762;28;20215;-42
2022/05/21 07:41:01;;;;;;;0.63;0.30;;;25.20;49.20;;;28.17;36.74;101567.59;5125019;27;20201;-40
2022/05/21 07:43:30;;;;;;;0.30;0.30;;;25.20;49.20;;;28.15;36.57;101567.88;5128264;27;20202;-41
2022/05/21 07:45:58;;;;;;;0.40;0.40;;;25.20;49.20;;;28.17;36.73;101562.16;5084291;28;20274;-41
2022/05/21 07:48:27;;;;;;;0.50;0.50;;;25.30;49.20;;;28.17;36.77;101573.81;5096200;28;20208;-41
2022/05/21 07:52:25;;;;;;;0.63;0.40;;;25.20;49.10;;;28.02;36.97;101579.25;4975100;28;20203;-43
2022/05/21 07:57:29;;;;;;;0.30;0.30;;;25.30;49.10;;;28.13;36.92;101577.34;5170003;27;20549;-41
2022/05/21 07:59:56;;;;;;;0.30;0.30;;;25.20;49.10;;;28.14;36.50;101568.97;5149015;27;20187;-40
2022/05/21 08:02:23;;;;;;;0.37;0.37;;;25.20;49.10;;;28.15;36.91;101569.75;5148935;27;20569;-42
2022/05/21 08:04:50;;;;;;;0.40;0.40;;;25.20;49.00;;;28.16;36.46;101564.09;5136839;27;20298;-40
2022/05/21 08:07:18;;;;;;;0.50;0.43;;;25.20;49.00;;;28.16;36.12;101566.81;5118784;28;20226;-42
2022/05/21 08:09:45;;;;;;;0.50;0.40;;;25.20;49.00;;;28.18;36.73;101580.06;5101245;28;20208;-40
2022/05/21 08:12:14;;;;;;;0.30;0.30;;;25.20;49.00;;;28.17;36.57;101573.81;5124457;28;20207;-42
2022/05/21 08:14:43;;;;;;;0.30;0.30;;;25.30;49.10;;;28.18;36.80;101585.47;5122053;28;20198;-41
2022/05/21 08:17:09;;;;;;;0.40;0.40;;;25.20;49.00;;;28.17;36.62;101590.06;5120130;28;20278;-41
2022/05/21 08:27:41;;;;;;;0.20;0.20;;;25.30;49.00;;;28.15;36.49;101592.25;5099409;28;20200;-41
2022/05/21 08:30:09;;;;;;;0.20;0.20;;;25.30;49.00;;;28.16;36.59;101593.88;5086769;28;20245;-41
2022/05/21 08:32:36;;;;;;;0.40;0.40;;;25.30;49.00;;;28.17;36.74;101597.38;5076344;28;20188;-41
2022/05/21 08:35:04;;;;;;;0.30;0.30;;;25.20;48.90;;;28.18;36.62;101604.44;5103928;28;20227;-42
2022/05/21 08:37:33;;;;;;;0.37;0.37;;;25.30;49.00;;;28.18;36.67;101613.38;5055103;28;20292;-42
2022/05/21 08:44:05;;;;;;;0.40;0.40;;;25.30;49.00;;;28.10;36.58;101619.31;5170342;27;20633;-41
2022/05/21 08:46:44;;;;;;;0.40;0.40;;;25.30;48.90;;;28.13;36.54;101618.78;5109968;28;20286;-42
2022/05/21 08:49:25;;;;;;;0.30;0.30;;;25.30;48.90;;;28.13;36.55;101621.50;5075641;28;20702;-41
2022/05/21 08:52:01;;;;;;;0.30;0.30;;;25.30;48.90;;;28.16;36.50;101614.72;5061584;28;20201;-41
2022/05/21 08:54:34;;;;;;;0.30;0.30;;;25.30;48.90;;;28.18;36.28;101624.22;5050276;28;20197;-43
2022/05/21 08:57:04;;;;;;;0.40;0.40;;;25.30;48.90;;;28.21;36.56;101616.63;5060367;28;20198;-41
2022/05/21 09:00:07;;;;;;;0.30;0.30;;;25.30;48.80;;;28.18;36.54;101623.41;4924132;28;20234;-41
2022/05/21 09:02:33;;;;;;;0.30;0.30;;;25.30;49.40;;;28.21;36.60;101632.88;4920500;28;20234;-41
2022/05/21 09:07:58;;;;;;;0.37;0.37;;;25.30;48.80;;;28.18;36.42;101635.06;5170222;27;21144;-40
2022/05/21 09:10:53;;;;;;;0.30;0.30;;;25.30;48.70;;;28.18;36.54;101637.75;5096580;28;20221;-40
2022/05/21 09:13:34;;;;;;;0.40;0.40;;;25.30;48.70;;;28.19;36.46;101641.28;5034963;28;20224;-41
2022/05/21 09:18:50;;;;;;;0.30;0.30;;;25.30;48.70;;;28.22;36.49;101640.72;4985915;28;20588;-42
2022/05/21 09:21:20;;;;;;;0.20;0.20;;;25.30;48.70;;;28.24;36.70;101654.84;5039437;28;20679;-40
2022/05/21 09:23:51;;;;;;;0.40;0.40;;;25.30;48.70;;;28.24;36.41;101654.03;5061763;28;20220;-42
2022/05/21 09:26:18;;;;;;;0.53;0.50;;;25.30;48.60;;;28.25;36.19;101650.22;5061892;28;20258;-41
2022/05/21 09:28:43;;;;;;;0.40;0.40;;;25.30;48.60;;;28.26;36.56;101646.44;5022849;28;20200;-42
2022/05/21 09:32:52;;;;;;;0.30;0.30;;;25.30;48.70;;;28.23;36.37;101646.97;5170210;27;20549;-42
2022/05/21 09:35:23;;;;;;;0.30;0.30;;;25.30;48.60;;;28.25;36.25;101645.63;5123721;28;20656;-40
2022/05/21 09:37:51;;;;;;;0.20;0.20;;;25.30;48.90;;;28.28;36.24;101649.69;5105523;28;20326;-41
2022/05/21 09:40:33;;;;;;;0.20;0.20;;;25.30;48.60;;;28.25;36.14;101650.22;5059452;28;20195;-40
2022/05/21 09:46:18;;;;;;;0.40;0.30;;;25.40;48.60;;;28.24;36.27;101654.03;4895169;29;20287;-42
2022/05/21 09:48:47;;;;;;;0.30;0.30;;;25.40;48.60;;;28.27;36.21;101656.16;4854427;29;20198;-42
2022/05/21 09:52:33;;;;;;;0.30;0.30;;;25.40;48.60;;;28.12;36.41;101662.41;4913491;29;20226;-43
2022/05/21 09:54:59;;;;;;;0.40;0.40;;;25.40;48.50;;;28.21;36.34;101668.91;4716838;29;20240;-41
2022/05/21 10:00:25;;;;;;;0.30;0.30;;;25.30;48.40;;;28.23;36.26;101674.88;5169981;27;20731;-43
2022/05/21 10:02:55;;;;;;;0.50;0.40;;;25.30;48.40;;;28.26;36.21;101668.09;5117920;28;20234;-41
2022/05/21 10:05:28;;;;;;;0.40;0.30;;;25.30;48.50;;;28.27;36.18;101680.53;5127748;28;20213;-40
2022/05/21 10:11:02;;;;;;;0.27;0.27;;;25.30;48.50;;;28.26;36.35;101684.34;5051870;28;20197;-41
2022/05/21 10:13:39;;;;;;;0.40;0.40;;;25.30;48.40;;;28.25;36.17;101686.25;4972730;28;20222;-41
2022/05/21 10:16:24;;;;;;;0.30;0.30;;;25.40;48.50;;;28.24;35.93;101691.94;4907956;29;20229;-42
2022/05/21 10:22:21;;;;;;;0.40;0.40;;;25.40;48.40;;;28.23;36.16;101691.13;5170216;27;20645;-41
2022/05/21 10:25:07;;;;;;;0.70;0.40;;;25.40;48.40;;;28.23;36.36;101684.88;5088335;28;20614;-40
2022/05/21 10:28:10;;;;;;;0.30;0.30;;;25.40;48.40;;;28.21;36.07;101692.47;5084977;28;20224;-40
2022/05/21 10:31:19;;;;;;;0.47;0.47;;;25.40;48.40;;;28.21;36.22;101692.47;5081011;28;20253;-41
2022/05/21 10:34:08;;;;;;;0.37;0.37;;;25.40;48.40;;;28.24;36.22;101700.06;4921262;28;20213;-40
2022/05/21 10:37:00;;;;;;;0.30;0.30;;;25.40;48.40;;;28.24;36.22;101697.34;4776887;29;20231;-39
2022/05/21 10:39:52;;;;;;;0.30;0.30;;;25.40;48.30;;;28.24;36.09;101697.34;4578159;31;20211;-39
2022/05/21 10:42:18;;;;;;;0.40;0.40;;;25.40;48.30;;;28.27;36.46;101713.88;4469922;31;20337;-39
2022/05/21 10:47:39;;;;;;;0.50;0.50;;;25.40;48.30;;;28.28;36.30;101725.53;5169941;27;20633;-43
2022/05/21 10:50:28;;;;;;;0.30;0.30;;;25.40;48.30;;;28.25;36.08;101709.78;5075661;28;20606;-39
2022/05/21 10:53:37;;;;;;;0.27;0.27;;;25.40;48.30;;;28.23;36.45;101711.97;5067435;28;20693;-41
2022/05/21 10:56:24;;;;;;;0.30;0.30;;;25.40;48.30;;;28.25;36.16;101707.91;5013710;28;20246;-41
2022/05/21 10:59:13;;;;;;;0.40;0.40;;;25.40;48.20;;;28.24;36.14;101721.72;4959099;28;20688;-42
2022/05/21 11:01:53;;;;;;;0.53;0.40;;;25.40;48.20;;;28.26;36.33;101714.97;4785764;29;20702;-41
2022/05/21 11:04:51;;;;;;;0.60;0.40;;;25.40;48.20;;;28.23;35.93;101725.50;4674475;30;20710;-42
2022/05/21 11:07:33;;;;;;;0.20;0.20;;;25.40;48.20;;;28.26;35.95;101723.09;4568404;30;20225;-43
2022/05/21 11:12:59;;;;;;;0.70;0.40;;;25.30;48.10;;;28.23;36.10;101728.22;5169997;27;20633;-40
2022/05/21 11:15:37;;;;;;;0.30;0.30;;;25.30;48.10;;;28.23;35.90;101730.94;5105679;28;20214;-42
2022/05/21 11:18:16;;;;;;;0.67;0.40;;;25.30;48.00;;;28.22;35.71;101732.81;5080094;28;20673;-41
2022/05/21 11:20:52;;;;;;;0.50;0.50;;;25.40;47.90;;;28.18;35.63;101727.13;5088972;28;20203;-41
2022/05/21 11:23:26;;;;;;;0.40;0.40;;;25.30;47.60;;;28.13;35.68;101727.13;5049081;28;20201;-43
2022/05/21 11:26:02;;;;;;;0.50;0.50;;;25.30;47.50;;;28.08;35.73;101731.69;4929203;29;20304;-43
2022/05/21 11:28:40;;;;;;;0.70;0.60;;;25.20;47.30;;;28.02;35.89;101736.31;4905723;28;20289;-43
2022/05/21 11:38:10;;;;;;;0.70;0.60;;;25.10;47.00;;;27.80;35.21;101729.41;5162944;27;20320;-42
2022/05/21 11:46:57;;;;;;;0.33;0.33;;;24.90;46.90;;;27.71;35.46;101742.63;5078159;28;20278;-41
2022/05/21 11:49:40;;;;;;;0.40;0.40;;;24.90;47.00;;;27.72;35.80;101735.34;5049676;28;20208;-43
2022/05/21 11:53:00;;;;;;;0.33;0.33;;;24.90;47.00;;;27.69;35.72;101733.97;5022163;28;20298;-39
2022/05/21 11:57:12;;;;;;;0.50;0.20;;;24.90;47.10;;;27.64;35.67;101731.25;4850357;29;20725;-41
2022/05/21 12:02:23;;;;;;;0.80;0.47;;;24.90;47.20;;;27.82;35.53;101743.47;5166767;27;20639;-41
2022/05/21 12:04:58;;;;;;;0.37;0.37;;;24.90;47.20;;;27.85;35.48;101754.59;5110949;28;20563;-43
2022/05/21 12:07:53;;;;;;;0.37;0.30;;;24.90;47.20;;;27.86;35.29;101744.59;5095686;28;20227;-42
2022/05/21 12:10:26;;;;;;;0.40;0.40;;;24.90;47.20;;;27.94;35.28;101744.91;5007032;28;20210;-42
2022/05/21 12:13:12;;;;;;;0.33;0.33;;;24.90;47.30;;;27.94;35.56;101739.47;4977887;28;20543;-41
2022/05/21 12:15:48;;;;;;;0.40;0.30;;;25.00;47.20;;;28.03;35.02;101748.75;4865039;29;20227;-41
2022/05/21 12:20:06;;;;;;;0.40;0.40;;;25.00;47.30;;;27.92;35.48;101744.34;4621594;30;20232;-43
2022/05/21 12:25:14;;;;;;;0.53;0.47;;;25.10;47.30;;;28.08;35.42;101753.34;5120788;27;20326;-42
2022/05/21 12:27:55;;;;;;;0.50;0.50;;;25.10;47.20;;;28.07;35.37;101755.28;5094107;28;20190;-42
2022/05/21 12:30:29;;;;;;;0.40;0.40;;;25.10;47.20;;;28.12;35.38;101760.69;5091397;28;20211;-41
2022/05/21 12:32:57;;;;;;;0.30;0.30;;;25.20;47.20;;;28.15;35.73;101765.56;5062147;28;20202;-42
2022/05/21 12:35:48;;;;;;;0.30;0.30;;;25.20;47.20;;;28.14;35.53;101768.56;5023556;28;20233;-41
2022/05/21 12:38:29;;;;;;;0.50;0.50;;;25.20;47.10;;;28.18;35.25;101759.63;4974130;28;20198;-43
2022/05/21 12:41:04;;;;;;;0.43;0.40;;;25.20;47.10;;;28.19;35.19;101768.59;4833119;29;20255;-43